Tiempo atmosférico en la estación meteorológica de Hermigua, Santa Cruz de Tenerife (252 m.)



Fecha
DESCASC
Temp. máxima en grados centígrados (hora)
DESCASC
Temp. mínima en grados centígrados (hora)
DESCASC
Temp. media en grados centígrados
DESCASC
Racha de viento máxima en m/sg (hora)
DESCASC
Velocidad máxima media en intervalos de 10 minutos(hora)
DESCASC
Precipitaciones diarias en mm
DESCASC
Precipitaciones de 00:00 a 06:00 en mm
DESCASC
Precipitaciones de 06:00 a 12:00 en mm
DESCASC
Precipitaciones de 12:00 a 18:00 en mm
DESCASC
Precipitaciones de 18:00 a 24:00 en mm
DESCASC
29-03-2020 19.5 (16:30) 12.5 (06:10) 16 6.11 (14:10) 3.06 (12:40) 0 0 0 0 0
28-03-2020 18.5 (15:10) 13.6 (06:10) 16.1 8.06 (00:20) 3.61 (00:30) 0 0 0 0 0
27-03-2020 21.3 (17:20) 12.2 (07:00) 16.7 10.83 (23:20) 5.28 (19:20) 5.4 0 0 0.4 5
26-03-2020 19 (15:20) 12.6 (00:00) 15.8 6.39 (20:20) 3.61 (20:30) 0 0 0 0 0
25-03-2020 18 (11:20) 14.4 (00:00) 16.2 6.94 (02:00) 2.78 (02:00) 0.6 0 0 0.6 0
24-03-2020 18.5 (13:30) 14.2 (00:00) 16.3 12.22 (18:00) 5 (01:10) 0.6 0.6 0 0 0
23-03-2020 15.9 (11:50) 13.2 (00:00) 14.5 19.17 (04:10) 8.61 (06:40) 9.8 2.6 5.2 1.8 0.2
22-03-2020 21.1 (14:40) 13.4 (05:40) 17.3 15.83 (23:40) 7.22 (20:30) 2.4 0 0 2.4 0
21-03-2020 18.1 (13:00) 14.7 (00:00) 16.4 10.28 (21:50) 5 (22:10) 0 0 0 0 0
20-03-2020 19.6 (14:50) 14.5 (00:00) 17.1 9.17 (01:20) 5 (01:20) 1.8 0 0 0 1.8
19-03-2020 17.6 (12:50) 14.6 (00:00) 16.1 11.39 (08:50) 5.83 (09:30) 1 0.2 0.8 0 0
18-03-2020 18 (13:40) 12.9 (00:00) 15.4 11.39 (04:40) 4.72 (20:30) 0.2 0.2 0 0 0
17-03-2020 17.2 (15:20) 13.1 (00:00) 15.2 12.22 (15:40) 6.11 (15:50) 0 0 0 0 0
16-03-2020 19.3 (15:10) 14 (00:00) 16.6 13.06 (07:10) 5.56 (11:10) 2.4 2.4 0 0 0
15-03-2020 18.9 (13:50) 14.3 (00:00) 16.6 9.17 (08:10) 4.72 (20:20) 0.4 0 0 0 0.4
14-03-2020 19.5 (13:40) 15.3 (00:00) 17.4 6.67 (12:20) 3.61 (18:10) 0 0 0 0 0
13-03-2020 17.7 (13:20) 12.7 (02:00) 15.2 6.11 (12:20) 2.78 (23:10) 0 0 0 0 0
12-03-2020 19.8 (14:20) 11.6 (00:00) 15.7 5.56 (13:50) 2.78 (12:40) 0 0 0 0 0
11-03-2020 20.4 (14:20) 11.4 (00:00) 15.9 4.72 (12:50) 2.5 (11:50) 0 0 0 0 0
10-03-2020 20.1 (15:10) 11.2 (00:00) 15.7 6.11 (14:00) 3.06 (14:00) 0 0 0 0 0
09-03-2020 20.5 (16:20) 12.2 (00:00) 16.3 6.11 (15:00) 3.06 (12:10) 0 0 0 0 0
08-03-2020 20.1 (12:20) 16.1 (00:00) 18.1 6.94 (14:50) 2.78 (12:00) 0 0 0 0 0
07-03-2020 19.3 (13:10) 15.4 (00:00) 17.3 8.33 (00:50) 3.33 (17:00) 0 0 0 0 0
06-03-2020 17.9 (13:30) 15.3 (00:00) 16.6 10.83 (06:20) 4.17 (08:20) 0 0 0 0 0
05-03-2020 18.8 (10:30) 14.9 (00:00) 16.8 7.78 (23:30) 3.33 (23:30) 0 0 0 0 0
04-03-2020 19.7 (12:10) 14.9 (23:59) 17.3 7.22 (12:20) 2.78 (12:30) 0 0 0 0 0
03-03-2020 20 (14:10) 14.5 (00:00) 17.3 6.39 (13:20) 3.06 (14:50) 0 0 0 0 0
02-03-2020 20.3 (12:50) 15.4 (00:00) 17.8 7.22 (15:00) 3.33 (18:00) 0 0 0 0 0
01-03-2020 19.8 (15:50) 11.8 (00:00) 15.8 7.5 (12:20) 3.33 (17:20) 0 0 0 0 0
29-02-2020 19.4 (11:40) 11.5 (00:00) 15.4 6.11 (11:30) 3.06 (15:00) 0 0 0 0 0

Gráficas

Temp. máximas Temp. mínimas Temp. medias Precipitaciones Rachas de viento máximas Velocidades máximas media en intervalos de 10 minutos

Datos horarios

Fecha y hora oficial Temperatura (ºC) Velocidad del viento (km/h) Dirección del viento Racha (km/h) Dirección de racha Precipitación (mm) Presión (hPa) Tendencia (hPa) Humedad (%)
2020-03-29 23:00:00 14.2 7 Sur 12 Sudeste 0 -- -- 80
2020-03-29 22:00:00 14.7 7 Sur 12 Sur 0 -- -- 74
2020-03-29 21:00:00 15.8 3 Sur 7 Sudeste 0 -- -- 75
2020-03-29 20:00:00 17.3 3 Este 10 Este 0 -- -- 68
2020-03-29 19:00:00 17.9 5 Norte 15 Este 0 -- -- 66
2020-03-29 18:00:00 17.9 6 Norte 20 Nordeste 0 -- -- 69
2020-03-29 17:00:00 19.3 9 Norte 22 Nordeste 0 -- -- 66
2020-03-29 16:00:00 19 9 Nordeste 19 Este 0 -- -- 67
2020-03-29 15:00:00 19.1 9 Nordeste 22 Nordeste 0 -- -- 64
2020-03-29 14:00:00 18.7 9 Nordeste 20 Norte 0 -- -- 66
2020-03-29 13:00:00 18.8 8 Nordeste 19 Norte 0 -- -- 64
2020-03-29 12:00:00 18.5 8 Norte 19 Norte 0 -- -- 63
2020-03-29 11:00:00 17.9 7 Norte 13 Noroeste 0 -- -- 66
2020-03-29 10:00:00 16.4 4 Sur 10 Sur 0 -- -- 65
2020-03-29 09:00:00 12.6 8 Sur 16 Sur 0 -- -- 79
2020-03-29 08:00:00 12.5 9 Sur 18 Sudoeste 0 -- -- 75
2020-03-29 07:00:00 12.5 8 Sur 17 Sur 0 -- -- 74
2020-03-29 06:00:00 12.6 10 Sur 16 Sur 0 -- -- 76
2020-03-29 05:00:00 12.9 9 Sur 15 Sudeste 0 -- -- 79
2020-03-29 04:00:00 13.1 9 Sur 15 Sur 0 -- -- 80
2020-03-29 00:00:00 14.2 6 Sur 13 Sur 0 -- -- 78
2020-03-28 23:00:00 14.3 7 Sur 14 Sur 0 -- -- 74
2020-03-28 22:00:00 15.3 4 Sur 9 Sudeste 0 -- -- 75
2020-03-28 21:00:00 15.7 0 Calma 4 Norte 0 -- -- 78
2020-03-28 20:00:00 16 2 Este 6 Este 0 -- -- 79
2020-03-28 19:00:00 16.4 3 Nordeste 9 Norte 0 -- -- 78
2020-03-28 18:00:00 16.6 5 Nordeste 13 Norte 0 -- -- 77
2020-03-28 17:00:00 17.1 5 Nordeste 15 Norte 0 -- -- 76
2020-03-28 16:00:00 17.4 8 Nordeste 21 Nordeste 0 -- -- 73
2020-03-28 15:00:00 18.4 8 Nordeste 18 Este 0 -- -- 68
2020-03-28 14:00:00 17.9 9 Nordeste 21 Nordeste 0 -- -- 73
2020-03-28 13:00:00 17.8 9 Nordeste 20 Nordeste 0 -- -- 69
2020-03-28 12:00:00 17.9 10 Nordeste 20 Nordeste 0 -- -- 72
2020-03-28 11:00:00 17.5 11 Nordeste 22 Nordeste 0 -- -- 76
2020-03-28 10:00:00 16.1 8 Este 18 Nordeste 0 -- -- 78
2020-03-28 09:00:00 15 10 Nordeste 18 Nordeste 0 -- -- 87
2020-03-28 08:00:00 14.5 4 Sur 9 Nordeste 0 -- -- 78
2020-03-28 07:00:00 13.7 3 Sudeste 6 Sudeste 0 -- -- 81
2020-03-28 06:00:00 13.7 5 Sudeste 16 Nordeste 0 -- -- 81
2020-03-28 05:00:00 14.4 3 Nordeste 16 Norte 0 -- -- 78
2020-03-28 04:00:00 14.4 5 Este 14 Este 0 -- -- 80
2020-03-28 03:00:00 14.3 4 Este 12 Este 0 -- -- 80
2020-03-28 02:00:00 14.6 4 Noroeste 29 Nordeste 0 -- -- 80
2020-03-28 01:00:00 14.8 12 Nordeste 29 Nordeste 0 -- -- 79
2020-03-28 00:00:00 15 15 Nordeste 39 Nordeste 0 -- -- 79
2020-03-27 23:00:00 15 13 Nordeste 38 Nordeste 0 -- -- 79
2020-03-27 22:00:00 14.8 10 Nordeste 27 Nordeste 1.4 -- -- 86
2020-03-27 21:00:00 15 10 Nordeste 31 Nordeste 0 -- -- 84
2020-03-27 20:00:00 14.6 13 Nordeste 38 Nordeste 1.6 -- -- 88
2020-03-27 19:00:00 14.8 10 Nordeste 36 Nordeste 2 -- -- 92
2020-03-27 18:00:00 15.6 10 Norte 25 Nordeste 0.4 -- -- 83
2020-03-27 17:00:00 20.5 13 Sudoeste 25 Sudoeste 0 -- -- 51
2020-03-27 16:00:00 19.3 5 Este 19 Norte 0 -- -- 64
2020-03-27 15:00:00 18.4 5 Este 25 Este 0 -- -- 68
2020-03-27 14:00:00 18.9 9 Norte 27 Nordeste 0 -- -- 62
2020-03-27 13:00:00 19.2 14 Nordeste 25 Este 0 -- -- 58
2020-03-27 12:00:00 19.9 12 Nordeste 28 Norte 0 -- -- 54
2020-03-27 11:00:00 19.1 9 Nordeste 26 Este 0 -- -- 60
2020-03-27 10:00:00 17.8 5 Nordeste 15 Este 0 -- -- 65
2020-03-27 09:00:00 16.3 3 Este 12 Este 0 -- -- 74
2020-03-27 08:00:00 14.2 6 Este 17 Este 0 -- -- 79
2020-03-27 07:00:00 12.2 5 Sur 12 Sudeste 0 -- -- 84
2020-03-27 06:00:00 12.6 5 Sur 12 Oeste 0 -- -- 82
2020-03-27 05:00:00 13.5 3 Sur 14 Sudoeste 0 -- -- 79
2020-03-27 04:00:00 13.4 3 Sudeste 6 Sudeste 0 -- -- 81
2020-03-27 03:00:00 13.4 4 Sur 8 Sur 0 -- -- 78
2020-03-27 02:00:00 13.5 3 Sudeste 8 Sudoeste 0 -- -- 80
2020-03-27 01:00:00 14.1 3 Sudoeste 9 Oeste 0 -- -- 79
2020-03-27 00:00:00 15.1 2 Norte 13 Norte 0 -- -- 75
2020-03-26 23:00:00 15.3 6 Nordeste 18 Nordeste 0 -- -- 76
2020-03-26 22:00:00 15.5 8 Nordeste 19 Nordeste 0 -- -- 75
2020-03-26 21:00:00 15.6 9 Nordeste 23 Nordeste 0 -- -- 73
2020-03-26 20:00:00 15.7 11 Nordeste 22 Norte 0 -- -- 73
2020-03-26 19:00:00 16.2 8 Nordeste 22 Nordeste 0 -- -- 74
2020-03-26 18:00:00 17.2 4 Nordeste 19 Norte 0 -- -- 64
2020-03-26 17:00:00 18.4 10 Nordeste 19 Norte 0 -- -- 63
2020-03-26 16:00:00 18.7 7 Nordeste 20 Este 0 -- -- 57
2020-03-26 15:00:00 18.8 8 Nordeste 22 Nordeste 0 -- -- 59
2020-03-26 14:00:00 18.9 8 Nordeste 22 Nordeste 0 -- -- 60
2020-03-26 13:00:00 18.2 8 Nordeste 21 Norte 0 -- -- 68
2020-03-26 12:00:00 16.9 10 Nordeste 21 Nordeste 0 -- -- 72
2020-03-26 11:00:00 17.6 10 Nordeste 18 Nordeste 0 -- -- 71
2020-03-26 10:00:00 16.8 8 Nordeste 15 Norte 0 -- -- 73
2020-03-26 09:00:00 16.1 4 Sur 6 Sur 0 -- -- 76
2020-03-26 08:00:00 14.3 4 Sur 9 Sur 0 -- -- 81
2020-03-26 07:00:00 13.7 6 Sur 10 Sudeste 0 -- -- 84
2020-03-26 06:00:00 13.4 5 Sur 12 Sur 0 -- -- 83
2020-03-26 05:00:00 12.6 4 Sur 10 Sur 0 -- -- 89
2020-03-26 04:00:00 13.1 6 Sur 11 Sur 0 -- -- 86
2020-03-26 03:00:00 14 5 Sur 9 Sur 0 -- -- 85
2020-03-26 02:00:00 14.5 5 Sur 9 Sur 0 -- -- 84
2020-03-26 01:00:00 14.8 3 Sudoeste 8 Sudoeste 0 -- -- 83
2020-03-26 00:00:00 14.7 3 Sudeste 9 Sur 0 -- -- 84
2020-03-25 23:00:00 14.9 3 Sur 9 Sur 0 -- -- 83
2020-03-25 22:00:00 14.8 3 Sur 5 Nordeste 0 -- -- 86
2020-03-25 21:00:00 15.1 2 Noroeste 10 Nordeste 0 -- -- 83
2020-03-25 20:00:00 15 3 Sudoeste 8 Sur 0 -- -- 87
2020-03-25 19:00:00 15.4 3 Sudoeste 6 Noroeste 0 -- -- 87
2020-03-25 18:00:00 15.6 5 Oeste 15 Norte 0.6 -- -- 85
2020-03-25 17:00:00 16.8 5 Norte 15 Nordeste 0 -- -- 73
2020-03-25 16:00:00 17 7 Nordeste 17 Nordeste 0 -- -- 72
2020-03-25 15:00:00 17.2 6 Nordeste 15 Norte 0 -- -- 71
2020-03-25 14:00:00 17.4 8 Nordeste 16 Norte 0 -- -- 71
2020-03-25 13:00:00 17.6 9 Nordeste 18 Nordeste 0 -- -- 68
2020-03-25 12:00:00 17.7 9 Nordeste 16 Nordeste 0 -- -- 63
2020-03-25 11:00:00 17.8 7 Nordeste 15 Nordeste 0 -- -- 65
2020-03-25 10:00:00 16.6 3 Este 10 Nordeste 0 -- -- 68
2020-03-25 09:00:00 15.5 3 Nordeste 9 Norte 0 -- -- 82
2020-03-25 08:00:00 14.9 2 Sudeste 8 Sur 0 -- -- 80
2020-03-25 07:00:00 14.7 5 Sur 9 Sur 0 -- -- 77
2020-03-25 06:00:00 14.8 2 Nordeste 7 Nordeste 0 -- -- 77
2020-03-25 05:00:00 14.9 0 Calma 21 Nordeste 0 -- -- 78
2020-03-25 04:00:00 15.2 5 Norte 15 Nordeste 0 -- -- 82
2020-03-25 03:00:00 15.3 8 Nordeste 22 Nordeste 0 -- -- 77
2020-03-25 02:00:00 15.6 10 Nordeste 25 Nordeste 0 -- -- 81
2020-03-25 01:00:00 15.4 6 Nordeste 14 Nordeste 0 -- -- 82
2020-03-25 00:00:00 15.1 0 Calma 8 Nordeste 0 -- -- 79
2020-03-24 23:00:00 15.3 4 Este 15 Nordeste 0 -- -- 79
2020-03-24 22:00:00 15.3 7 Nordeste 20 Nordeste 0 -- -- 76
2020-03-24 21:00:00 15.6 5 Norte 26 Nordeste 0 -- -- 72
2020-03-24 20:00:00 15.5 9 Norte 27 Nordeste 0 -- -- 68
2020-03-24 19:00:00 16.1 9 Nordeste 24 Este 0 -- -- 63
2020-03-24 18:00:00 16.5 11 Este 44 Nordeste 0 -- -- 62
2020-03-24 17:00:00 17.4 9 Este 25 Sudeste 0 -- -- 65
2020-03-24 16:00:00 17.8 12 Este 26 Este 0 -- -- 62
2020-03-24 15:00:00 16.8 13 Nordeste 31 Nordeste 0 -- -- 78
2020-03-24 14:00:00 17.4 13 Nordeste 32 Nordeste 0 -- -- 72
2020-03-24 13:00:00 17.6 15 Nordeste 30 Nordeste 0 -- -- 67
2020-03-24 12:00:00 17.7 14 Nordeste 27 Nordeste 0 -- -- 77
2020-03-24 11:00:00 17.2 10 Nordeste 26 Nordeste 0 -- -- 75
2020-03-24 10:00:00 16.4 15 Nordeste 23 Nordeste 0 -- -- 78
2020-03-24 09:00:00 15.7 12 Nordeste 26 Nordeste 0 -- -- 81
2020-03-24 08:00:00 15.5 10 Norte 30 Nordeste 0 -- -- 80
2020-03-24 07:00:00 15.3 10 Norte 27 Norte 0 -- -- 80
2020-03-24 06:00:00 15.3 12 Nordeste 30 Nordeste 0 -- -- 81
2020-03-24 05:00:00 15.4 16 Nordeste 32 Nordeste 0 -- -- 81
2020-03-24 04:00:00 15.4 14 Nordeste 39 Nordeste 0 -- -- 80
2020-03-24 03:00:00 15.3 12 Nordeste 35 Nordeste 0 -- -- 82
2020-03-24 02:00:00 15.1 11 Nordeste 37 Nordeste 0.6 -- -- 79
2020-03-24 01:00:00 15.5 12 Nordeste 31 Nordeste 0 -- -- 81
2020-03-24 00:00:00 15.4 16 Nordeste 40 Norte 0.2 -- -- 83
2020-03-23 23:00:00 15.5 13 Norte 33 Nordeste 0 -- -- 78
2020-03-23 22:00:00 15.4 14 Nordeste 51 Nordeste 0 -- -- 75
2020-03-23 21:00:00 15.4 19 Nordeste 42 Nordeste 0 -- -- 78
2020-03-23 20:00:00 15.4 12 Nordeste 35 Nordeste 0 -- -- 75
2020-03-23 19:00:00 15.5 14 Norte 35 Nordeste 0 -- -- 77
2020-03-23 18:00:00 15.6 12 Nordeste 42 Nordeste 0 -- -- 76
2020-03-23 17:00:00 15.7 16 Nordeste 42 Nordeste 0 -- -- 80
2020-03-23 16:00:00 15.9 16 Norte 38 Nordeste 0 -- -- 77
2020-03-23 15:00:00 15.2 18 Norte 51 Nordeste 1.6 -- -- 82
2020-03-23 14:00:00 15.6 23 Nordeste 49 Nordeste 0.2 -- -- 73
2020-03-23 13:00:00 14.3 19 Norte 42 Nordeste 0 -- -- 86
2020-03-23 12:00:00 15.8 23 Nordeste 46 Nordeste 0.6 -- -- 79
2020-03-23 11:00:00 14.6 21 Nordeste 67 Nordeste 0.2 -- -- 80
2020-03-23 10:00:00 15.3 28 Nordeste 55 Nordeste 0 -- -- 73
2020-03-23 09:00:00 14.2 19 Nordeste 63 Nordeste 3.8 -- -- 83
2020-03-23 08:00:00 14.8 28 Nordeste 56 Nordeste 0.2 -- -- 72
2020-03-23 07:00:00 13.9 17 Nordeste 55 Nordeste 0.4 -- -- 77
2020-03-23 06:00:00 14.8 23 Nordeste 61 Nordeste 0 -- -- 71
2020-03-23 05:00:00 14.2 19 Nordeste 69 Nordeste 0.6 -- -- 78
2020-03-23 04:00:00 14.4 17 Nordeste 60 Nordeste 0.2 -- -- 80
2020-03-23 03:00:00 13.2 14 Este 57 Nordeste 1.4 -- -- 87
2020-03-23 02:00:00 14.3 27 Este 59 Este 0.4 -- -- 78
2020-03-23 01:00:00 14.8 13 Este 52 Nordeste 0 -- -- 72
2020-03-23 00:00:00 15.2 14 Este 57 Este 0 -- -- 76
2020-03-22 23:00:00 15.4 22 Este 43 Nordeste 0 -- -- 72
2020-03-22 22:00:00 15.1 21 Este 49 Nordeste 0 -- -- 76
2020-03-22 21:00:00 14.9 10 Sudeste 53 Este 0 -- -- 76
2020-03-22 20:00:00 15.5 22 Este 53 Nordeste 0 -- -- 72
2020-03-22 19:00:00 15.5 18 Este 52 Nordeste 0 -- -- 71
2020-03-22 18:00:00 15.2 16 Este 34 Nordeste 0 -- -- 75
2020-03-22 17:00:00 14.8 13 Este 45 Nordeste 2.4 -- -- 80
2020-03-22 16:00:00 17.7 9 Sudeste 35 Sur 0 -- -- 67
2020-03-22 15:00:00 21.1 17 Sudoeste 37 Sudoeste 0 -- -- 50
2020-03-22 14:00:00 19.3 13 Nordeste 34 Nordeste 0 -- -- 51
2020-03-22 13:00:00 19.5 12 Nordeste 29 Nordeste 0 -- -- 47
2020-03-22 12:00:00 19.2 11 Este 28 Nordeste 0 -- -- 49
2020-03-22 11:00:00 17.7 11 Este 36 Sudeste 0 -- -- 60
2020-03-22 10:00:00 16.7 14 Nordeste 33 Este 0 -- -- 70
2020-03-22 09:00:00 15.3 18 Este 38 Este 0 -- -- 70
2020-03-22 08:00:00 14.3 12 Este 29 Este 0 -- -- 76
2020-03-22 07:00:00 14 7 Este 26 Nordeste 0 -- -- 77
2020-03-22 06:00:00 13.8 8 Este 17 Este 0 -- -- 70
2020-03-22 05:00:00 13.9 4 Norte 28 Nordeste 0 -- -- 77
2020-03-22 04:00:00 14.8 12 Nordeste 31 Nordeste 0 -- -- 69
2020-03-22 03:00:00 14.9 9 Nordeste 34 Nordeste 0 -- -- 61
2020-03-22 02:00:00 14.9 14 Nordeste 30 Norte 0 -- -- 66
2020-03-22 01:00:00 14.6 7 Norte 34 Nordeste 0 -- -- 65
2020-03-22 00:00:00 15 12 Nordeste 36 Nordeste 0 -- -- 59
2020-03-21 23:00:00 15.1 18 Nordeste 37 Nordeste 0 -- -- 60
2020-03-21 22:00:00 15.2 17 Nordeste 37 Nordeste 0 -- -- 59
2020-03-21 21:00:00 15.2 14 Nordeste 34 Nordeste 0 -- -- 70
2020-03-21 20:00:00 15.2 10 Nordeste 26 Nordeste 0 -- -- 71
2020-03-21 19:00:00 15.4 12 Nordeste 25 Nordeste 0 -- -- 67
2020-03-21 18:00:00 16 8 Norte 21 Nordeste 0 -- -- 62
2020-03-21 17:00:00 16.3 9 Nordeste 24 Norte 0 -- -- 66
2020-03-21 16:00:00 17.4 10 Norte 26 Nordeste 0 -- -- 57
2020-03-21 15:00:00 18 9 Nordeste 22 Norte 0 -- -- 57
2020-03-21 14:00:00 17.3 9 Nordeste 28 Nordeste 0 -- -- 58
2020-03-21 13:00:00 18.1 11 Nordeste 26 Nordeste 0 -- -- 53
2020-03-21 12:00:00 17.2 10 Norte 22 Nordeste 0 -- -- 50
2020-03-21 11:00:00 16.5 9 Norte 28 Nordeste 0 -- -- 53
2020-03-21 10:00:00 15.7 13 Norte 30 Norte 0 -- -- 61
2020-03-21 09:00:00 15 10 Norte 28 Norte 0 -- -- 72
2020-03-21 08:00:00 14.8 9 Nordeste 24 Nordeste 0 -- -- 67
2020-03-21 07:00:00 14.7 12 Nordeste 27 Norte 0 -- -- 67
2020-03-21 06:00:00 14.8 6 Norte 27 Nordeste 0 -- -- 70
2020-03-21 05:00:00 14.9 8 Nordeste 23 Norte 0 -- -- 70
2020-03-21 04:00:00 15 10 Nordeste 23 Nordeste 0 -- -- 70
2020-03-21 03:00:00 15 11 Nordeste 23 Nordeste 0 -- -- 77
2020-03-21 02:00:00 15 8 Nordeste 25 Norte 0 -- -- 75
2020-03-21 01:00:00 14.8 6 Norte 21 Nordeste 0 -- -- 91
2020-03-21 00:00:00 14.7 9 Norte 19 Norte 0.2 -- -- 93
2020-03-20 23:00:00 14.8 6 Nordeste 18 Nordeste 0.2 -- -- 92
2020-03-20 22:00:00 14.5 11 Nordeste 27 Norte 0 -- -- 93
2020-03-20 21:00:00 14.6 4 Norte 23 Nordeste 0.2 -- -- 93
2020-03-20 20:00:00 14.9 7 Norte 31 Este 1.2 -- -- 93
2020-03-20 19:00:00 15.9 8 Nordeste 26 Norte 0 -- -- 82
2020-03-20 18:00:00 16.5 8 Norte 20 Noroeste 0 -- -- 75
2020-03-20 17:00:00 16.3 8 Nordeste 27 Nordeste 0 -- -- 82
2020-03-20 16:00:00 19.3 9 Norte 26 Norte 0 -- -- 63
2020-03-20 15:00:00 19.5 12 Norte 26 Norte 0 -- -- 61
2020-03-20 14:00:00 19.3 10 Norte 26 Norte 0 -- -- 60
2020-03-20 13:00:00 19.2 12 Norte 27 Nordeste 0 -- -- 60
2020-03-20 12:00:00 18.4 10 Norte 29 Nordeste 0 -- -- 60
2020-03-20 11:00:00 17.2 9 Norte 24 Nordeste 0 -- -- 69
2020-03-20 10:00:00 16.6 6 Nordeste 18 Nordeste 0 -- -- 77
2020-03-20 09:00:00 16.1 8 Nordeste 22 Nordeste 0 -- -- 76
2020-03-20 08:00:00 15.9 7 Nordeste 24 Nordeste 0 -- -- 80
2020-03-20 07:00:00 15.8 7 Nordeste 25 Norte 0 -- -- 76
2020-03-20 06:00:00 15.8 14 Nordeste 27 Norte 0 -- -- 80
2020-03-20 05:00:00 15.9 12 Nordeste 27 Nordeste 0 -- -- 77
2020-03-20 04:00:00 15.8 8 Nordeste 26 Norte 0 -- -- 81
2020-03-20 03:00:00 15.9 7 Norte 22 Nordeste 0 -- -- 80
2020-03-20 02:00:00 16 9 Nordeste 33 Norte 0 -- -- 83
2020-03-20 01:00:00 16 8 Norte 26 Nordeste 0 -- -- 86
2020-03-20 00:00:00 16.1 10 Norte 29 Nordeste 0 -- -- 84
2020-03-19 23:00:00 16.2 9 Norte 34 Nordeste 0 -- -- 86
2020-03-19 22:00:00 16.3 17 Norte 35 Nordeste 0 -- -- 86
2020-03-19 21:00:00 16.3 9 Este 26 Norte 0 -- -- 88
2020-03-19 20:00:00 16.4 10 Nordeste 31 Nordeste 0 -- -- 87
2020-03-19 19:00:00 16.5 8 Norte 28 Nordeste 0 -- -- 86
2020-03-19 18:00:00 16.7 15 Norte 40 Nordeste 0 -- -- 85
2020-03-19 17:00:00 16.8 17 Norte 34 Norte 0 -- -- 86
2020-03-19 16:00:00 16.9 15 Nordeste 33 Norte 0 -- -- 86
2020-03-19 15:00:00 16.8 13 Norte 31 Nordeste 0 -- -- 90
2020-03-19 14:00:00 17.5 10 Norte 33 Nordeste 0 -- -- 84
2020-03-19 13:00:00 17.5 15 Nordeste 35 Norte 0 -- -- 83
2020-03-19 12:00:00 17.2 13 Nordeste 36 Nordeste 0 -- -- 84
2020-03-19 11:00:00 16.9 13 Norte 39 Norte 0 -- -- 84
2020-03-19 10:00:00 16.4 14 Norte 40 Este 0 -- -- 84
2020-03-19 09:00:00 15.4 18 Nordeste 41 Nordeste 0.8 -- -- 87
2020-03-19 08:00:00 15.8 10 Nordeste 31 Nordeste 0 -- -- 82
2020-03-19 07:00:00 15.6 11 Norte 29 Norte 0 -- -- 84
2020-03-19 06:00:00 15.2 10 Nordeste 33 Nordeste 0.2 -- -- 89
2020-03-19 05:00:00 15.2 13 Norte 38 Norte 0 -- -- 85
2020-03-19 04:00:00 14.7 10 Norte 40 Norte 0 -- -- 86
2020-03-19 03:00:00 15.5 12 Norte 28 Nordeste 0 -- -- 76
2020-03-19 02:00:00 15.5 13 Norte 34 Nordeste 0 -- -- 74
2020-03-19 01:00:00 15.5 11 Nordeste 31 Nordeste 0 -- -- 71
2020-03-19 00:00:00 15.4 12 Norte 30 Norte 0 -- -- 77
2020-03-18 23:00:00 15.4 13 Nordeste 41 Nordeste 0 -- -- 75
2020-03-18 22:00:00 15.6 10 Nordeste 37 Norte 0 -- -- 70
2020-03-18 21:00:00 15.6 15 Nordeste 36 Norte 0 -- -- 76
2020-03-18 20:00:00 15.7 16 Nordeste 32 Norte 0 -- -- 73
2020-03-18 19:00:00 15.9 10 Nordeste 39 Nordeste 0 -- -- 70
2020-03-18 18:00:00 16.2 13 Nordeste 34 Norte 0 -- -- 68
2020-03-18 17:00:00 16.2 14 Nordeste 35 Nordeste 0 -- -- 68
2020-03-18 16:00:00 17.5 14 Norte 33 Nordeste 0 -- -- 62
2020-03-18 15:00:00 17.1 14 Nordeste 35 Nordeste 0 -- -- 61
2020-03-18 14:00:00 17.9 14 Nordeste 29 Norte 0 -- -- 60
2020-03-18 13:00:00 17.1 12 Norte 38 Nordeste 0 -- -- 61
2020-03-18 12:00:00 16.6 12 Nordeste 29 Nordeste 0 -- -- 66
2020-03-18 11:00:00 16.8 10 Norte 29 Norte 0 -- -- 71
2020-03-18 10:00:00 14.9 12 Norte 31 Norte 0 -- -- 76
2020-03-18 09:00:00 14.5 9 Norte 30 Nordeste 0 -- -- 79
2020-03-18 08:00:00 14.3 10 Nordeste 30 Nordeste 0 -- -- 80
2020-03-18 07:00:00 14.8 10 Nordeste 32 Norte 0 -- -- 71
2020-03-18 06:00:00 15 9 Nordeste 36 Norte 0 -- -- 66
2020-03-18 05:00:00 14.5 11 Norte 41 Norte 0 -- -- 78
2020-03-18 04:00:00 13.7 9 Norte 25 Norte 0.2 -- -- 84
2020-03-18 03:00:00 13.7 8 Norte 23 Nordeste 0 -- -- 89
2020-03-18 02:00:00 13 4 Nordeste 37 Nordeste 0 -- -- 93
2020-03-18 01:00:00 14.4 14 Nordeste 36 Nordeste 0 -- -- 80
2020-03-18 00:00:00 13.6 8 Norte 41 Nordeste 0 -- -- 83
2020-03-17 23:00:00 14.7 10 Norte 35 Norte 0 -- -- 75
2020-03-17 22:00:00 15 12 Nordeste 36 Nordeste 0 -- -- 83
2020-03-17 21:00:00 14.4 11 Nordeste 34 Nordeste 0 -- -- 81
2020-03-17 20:00:00 14.9 10 Nordeste 29 Nordeste 0 -- -- 79
2020-03-17 19:00:00 14.6 12 Nordeste 33 Nordeste 0 -- -- 83
2020-03-17 18:00:00 15.4 8 Nordeste 31 Norte 0 -- -- 77
2020-03-17 17:00:00 15.6 10 Norte 27 Nordeste 0 -- -- 80
2020-03-17 16:00:00 15.1 14 Norte 44 Norte 0 -- -- 83
2020-03-17 15:00:00 16.1 9 Norte 27 Nordeste 0 -- -- 74
2020-03-17 14:00:00 16.6 12 Nordeste 33 Nordeste 0 -- -- 72
2020-03-17 13:00:00 16.4 9 Nordeste 33 Nordeste 0 -- -- 72
2020-03-17 12:00:00 16 9 Norte 29 Nordeste 0 -- -- 73
2020-03-17 11:00:00 15.2 8 Norte 34 Norte 0 -- -- 77
2020-03-17 10:00:00 14.4 14 Norte 34 Nordeste 0 -- -- 81
2020-03-17 09:00:00 13.9 13 Norte 42 Nordeste 0 -- -- 78
2020-03-17 08:00:00 14.1 14 Norte 36 Nordeste 0 -- -- 80
2020-03-17 07:00:00 13.7 8 Norte 36 Norte 0 -- -- 82
2020-03-17 06:00:00 14.2 10 Nordeste 31 Norte 0 -- -- 78
2020-03-17 05:00:00 14.3 9 Nordeste 33 Nordeste 0 -- -- 80
2020-03-17 04:00:00 14.5 14 Norte 31 Norte 0 -- -- 76
2020-03-17 03:00:00 14.4 10 Nordeste 35 Norte 0 -- -- 80
2020-03-17 02:00:00 14.8 19 Norte 36 Norte 0 -- -- 77
2020-03-17 01:00:00 15.1 9 Norte 37 Norte 0 -- -- 76
2020-03-17 00:00:00 15.5 8 Norte 36 Norte 0 -- -- 75
2020-03-16 23:00:00 15.5 18 Norte 36 Norte 0 -- -- 81
2020-03-16 22:00:00 15.6 12 Nordeste 33 Nordeste 0 -- -- 79
2020-03-16 21:00:00 15.6 15 Nordeste 33 Nordeste 0 -- -- 80
2020-03-16 20:00:00 15.5 9 Norte 28 Norte 0 -- -- 83
2020-03-16 19:00:00 15.7 10 Norte 32 Nordeste 0 -- -- 83
2020-03-16 18:00:00 16.3 15 Norte 37 Nordeste 0 -- -- 80
2020-03-16 17:00:00 16.3 20 Norte 40 Norte 0 -- -- 81
2020-03-16 16:00:00 18.3 13 Nordeste 34 Nordeste 0 -- -- 74
2020-03-16 15:00:00 19.1 10 Norte 30 Nordeste 0 -- -- 64
2020-03-16 14:00:00 18.8 13 Norte 32 Nordeste 0 -- -- 58
2020-03-16 13:00:00 18.8 13 Nordeste 36 Norte 0 -- -- 55
2020-03-16 12:00:00 18 18 Norte 41 Norte 0 -- -- 64
2020-03-16 11:00:00 16.8 18 Norte 37 Nordeste 0 -- -- 72
2020-03-16 10:00:00 17.2 17 Norte 33 Norte 0 -- -- 66
2020-03-16 09:00:00 16.4 16 Norte 36 Nordeste 0 -- -- 74
2020-03-16 08:00:00 14.8 11 Nordeste 47 Norte 0 -- -- 85
2020-03-16 07:00:00 15.5 16 Nordeste 37 Nordeste 0 -- -- 79
2020-03-16 06:00:00 15.3 15 Norte 39 Norte 0 -- -- 81
2020-03-16 05:00:00 14.4 10 Nordeste 34 Nordeste 0.2 -- -- 93
2020-03-16 04:00:00 14.5 12 Nordeste 22 Nordeste 0 -- -- 90
2020-03-16 03:00:00 14 7 Nordeste 24 Norte 0.4 -- -- 93
2020-03-16 02:00:00 14.5 7 Nordeste 27 Este 0.4 -- -- 91
2020-03-16 01:00:00 14.8 7 Nordeste 28 Este 1.4 -- -- 90
2020-03-16 00:00:00 15.4 7 Norte 30 Norte 0 -- -- 76
2020-03-15 23:00:00 15.3 10 Norte 31 Norte 0.2 -- -- 80
2020-03-15 22:00:00 15.2 13 Nordeste 31 Nordeste 0 -- -- 84
2020-03-15 21:00:00 16 11 Nordeste 32 Norte 0.2 -- -- 73
2020-03-15 20:00:00 15.8 7 Norte 28 Nordeste 0 -- -- 81
2020-03-15 19:00:00 16 10 Norte 26 Nordeste 0 -- -- 76
2020-03-15 18:00:00 16.2 13 Nordeste 30 Nordeste 0 -- -- 75
2020-03-15 17:00:00 17 10 Norte 24 Nordeste 0 -- -- 73
2020-03-15 16:00:00 16.9 11 Norte 23 Norte 0 -- -- 72
2020-03-15 15:00:00 18.2 8 Norte 23 Norte 0 -- -- 65
2020-03-15 14:00:00 18.7 10 Nordeste 20 Norte 0 -- -- 65
2020-03-15 13:00:00 17.9 10 Nordeste 24 Noroeste 0 -- -- 68
2020-03-15 12:00:00 16.8 8 Norte 22 Nordeste 0 -- -- 70
2020-03-15 11:00:00 16.8 7 Nordeste 21 Nordeste 0 -- -- 71
2020-03-15 10:00:00 15.9 6 Norte 16 Nordeste 0 -- -- 74
2020-03-15 09:00:00 14.9 8 Norte 33 Nordeste 0 -- -- 84
2020-03-15 08:00:00 14.7 6 Nordeste 18 Nordeste 0 -- -- 81
2020-03-15 07:00:00 14.4 4 Nordeste 19 Nordeste 0 -- -- 83
2020-03-15 06:00:00 14.6 5 Norte 24 Norte 0 -- -- 84
2020-03-15 05:00:00 15 11 Nordeste 26 Nordeste 0 -- -- 79
2020-03-15 04:00:00 15.4 11 Nordeste 22 Noroeste 0 -- -- 73
2020-03-15 03:00:00 15.3 8 Nordeste 26 Nordeste 0 -- -- 77
2020-03-15 02:00:00 15.4 8 Norte 26 Nordeste 0 -- -- 78
2020-03-15 01:00:00 15.3 13 Nordeste 27 Nordeste 0 -- -- 73
2020-03-15 00:00:00 15.4 10 Nordeste 22 Nordeste 0 -- -- 73
2020-03-14 23:00:00 15.6 6 Nordeste 21 Norte 0 -- -- 72
2020-03-14 22:00:00 15.6 8 Nordeste 21 Nordeste 0 -- -- 72
2020-03-14 21:00:00 15.6 5 Norte 19 Nordeste 0 -- -- 74
2020-03-14 20:00:00 15.8 7 Norte 18 Norte 0 -- -- 74
2020-03-14 19:00:00 16.3 7 Nordeste 24 Nordeste 0 -- -- 72
2020-03-14 18:00:00 16.6 10 Nordeste 24 Nordeste 0 -- -- 74
2020-03-14 17:00:00 16.9 8 Nordeste 24 Nordeste 0 -- -- 75
2020-03-14 16:00:00 17.8 10 Nordeste 20 Nordeste 0 -- -- 72
2020-03-14 15:00:00 18.4 10 Nordeste 22 Nordeste 0 -- -- 66
2020-03-14 14:00:00 19.1 8 Nordeste 20 Norte 0 -- -- 67
2020-03-14 13:00:00 19.1 10 Norte 24 Nordeste 0 -- -- 64
2020-03-14 12:00:00 18.3 9 Norte 20 Nordeste 0 -- -- 64
2020-03-14 11:00:00 17.6 9 Norte 24 Norte 0 -- -- 69
2020-03-14 10:00:00 16.8 8 Norte 23 Norte 0 -- -- 75
2020-03-14 09:00:00 16.2 9 Nordeste 22 Nordeste 0 -- -- 78
2020-03-14 08:00:00 15.7 8 Nordeste 18 Nordeste 0 -- -- 81
2020-03-14 07:00:00 15.4 6 Nordeste 14 Nordeste 0 -- -- 82
2020-03-14 06:00:00 15.5 4 Norte 17 Nordeste 0 -- -- 81
2020-03-14 05:00:00 15.6 5 Norte 19 Nordeste 0 -- -- 81
2020-03-14 04:00:00 15.6 3 Nordeste 21 Norte 0 -- -- 79
2020-03-14 03:00:00 15.8 6 Nordeste 17 Este 0 -- -- 82
2020-03-14 02:00:00 16.1 5 Nordeste 21 Norte 0 -- -- 81
2020-03-14 01:00:00 16.2 5 Norte 21 Nordeste 0 -- -- 83
2020-03-14 00:00:00 16.3 6 Norte 21 Nordeste 0 -- -- 82
2020-03-13 23:00:00 16.4 8 Nordeste 19 Nordeste 0 -- -- 82
2020-03-13 22:00:00 16.4 6 Nordeste 20 Nordeste 0 -- -- 84
2020-03-13 21:00:00 16.5 4 Norte 17 Nordeste 0 -- -- 80
2020-03-13 20:00:00 16.5 6 Norte 18 Norte 0 -- -- 80
2020-03-13 19:00:00 16.6 7 Nordeste 19 Nordeste 0 -- -- 82
2020-03-13 18:00:00 16.8 7 Nordeste 18 Nordeste 0 -- -- 80
2020-03-13 17:00:00 17.1 8 Nordeste 18 Nordeste 0 -- -- 78
2020-03-13 16:00:00 17.3 8 Nordeste 18 Nordeste 0 -- -- 78
2020-03-13 15:00:00 17.4 6 Norte 21 Nordeste 0 -- -- 77
2020-03-13 14:00:00 17.3 8 Nordeste 21 Norte 0 -- -- 76
2020-03-13 13:00:00 17.5 6 Nordeste 22 Nordeste 0 -- -- 76
2020-03-13 12:00:00 17.2 7 Norte 21 Nordeste 0 -- -- 75
2020-03-13 11:00:00 17 5 Nordeste 13 Nordeste 0 -- -- 76
2020-03-13 10:00:00 16.7 5 Norte 17 Norte 0 -- -- 77
2020-03-13 09:00:00 16.4 4 Nordeste 11 Nordeste 0 -- -- 79
2020-03-13 08:00:00 15.6 3 Sudeste 8 Sur 0 -- -- 77
2020-03-13 07:00:00 15.5 0 Calma 6 Sudeste 0 -- -- 83
2020-03-13 06:00:00 15.4 5 Sur 10 Nordeste 0 -- -- 80
2020-03-13 05:00:00 15 4 Sur 12 Sudeste 0 -- -- 83
2020-03-13 04:00:00 14.8 5 Sur 10 Sur 0 -- -- 84
2020-03-13 03:00:00 14.5 5 Sur 12 Sur 0 -- -- 88
2020-03-13 02:00:00 12.7 4 Sudeste 9 Sur 0 -- -- 92
2020-03-13 01:00:00 13.4 5 Este 9 Sur 0 -- -- 91
2020-03-13 00:00:00 15.2 6 Sur 12 Sur 0 -- -- 85
2020-03-12 23:00:00 15.3 3 Sudeste 5 Sudeste 0 -- -- 87
2020-03-12 22:00:00 16.6 4 Este 8 Nordeste 0 -- -- 87
2020-03-12 21:00:00 16.9 2 Este 9 Este 0 -- -- 88
2020-03-12 20:00:00 17.3 5 Nordeste 12 Este 0 -- -- 87
2020-03-12 19:00:00 17.8 4 Este 13 Norte 0 -- -- 85
2020-03-12 18:00:00 18.3 4 Este 17 Nordeste 0 -- -- 83
2020-03-12 17:00:00 19 8 Nordeste 18 Nordeste 0 -- -- 80
2020-03-12 16:00:00 19.5 9 Nordeste 18 Nordeste 0 -- -- 78
2020-03-12 15:00:00 19.6 9 Nordeste 18 Nordeste 0 -- -- 77
2020-03-12 14:00:00 19.5 8 Nordeste 20 Nordeste 0 -- -- 75
2020-03-12 13:00:00 19.3 8 Nordeste 17 Este 0 -- -- 78
2020-03-12 12:00:00 19.1 8 Nordeste 17 Nordeste 0 -- -- 78
2020-03-12 11:00:00 18.7 7 Este 14 Nordeste 0 -- -- 79
2020-03-12 10:00:00 17.5 6 Nordeste 12 Nordeste 0 -- -- 85
2020-03-12 09:00:00 15.9 3 Este 10 Este 0 -- -- 94
2020-03-12 08:00:00 11.7 3 Sudeste 9 Sur 0 -- -- 96
2020-03-12 07:00:00 12.9 4 Sudeste 10 Este 0 -- -- 96
2020-03-12 06:00:00 12.4 5 Este 9 Este 0 -- -- 99
2020-03-12 05:00:00 12.8 5 Este 10 Este 0 -- -- 97
2020-03-12 04:00:00 13 3 Sudeste 9 Sudeste 0 -- -- 95
2020-03-12 03:00:00 14.3 6 Este 11 Este 0 -- -- 97
2020-03-12 02:00:00 13.8 6 Este 9 Este 0 -- -- 98
2020-03-12 01:00:00 12.6 4 Sudeste 6 Sudeste 0 -- -- 96
2020-03-12 00:00:00 13.2 4 Sudeste 6 Sudeste 0 -- -- 95
2020-03-11 23:00:00 14.3 3 Sudeste 6 Sudeste 0 -- -- 93
2020-03-11 22:00:00 15.9 3 Este 12 Este 0 -- -- 96
2020-03-11 21:00:00 13.5 3 Este 6 Este 0 -- -- 86
2020-03-11 20:00:00 16.6 2 Este 5 Este 0 -- -- 93
2020-03-11 19:00:00 17.4 3 Nordeste 8 Este 0 -- -- 92
2020-03-11 18:00:00 19.8 4 Norte 13 Este 0 -- -- 81
2020-03-11 17:00:00 19.7 7 Nordeste 14 Este 0 -- -- 81
2020-03-11 16:00:00 19.6 8 Nordeste 15 Este 0 -- -- 81
2020-03-11 15:00:00 19.5 5 Nordeste 14 Nordeste 0 -- -- 80
2020-03-11 14:00:00 20.2 8 Nordeste 15 Nordeste 0 -- -- 76
2020-03-11 13:00:00 19.3 9 Nordeste 17 Nordeste 0 -- -- 79
2020-03-11 12:00:00 18.9 8 Nordeste 14 Este 0 -- -- 81
2020-03-11 11:00:00 19 7 Norte 13 Norte 0 -- -- 78
2020-03-11 10:00:00 15.5 3 Sudoeste 6 Sur 0 -- -- 90
2020-03-11 09:00:00 13.4 3 Sur 6 Sur 0 -- -- 96
2020-03-11 08:00:00 12.6 5 Sudeste 8 Sur 0 -- -- 95
2020-03-11 07:00:00 12.9 3 Sur 9 Sudeste 0 -- -- 94
2020-03-11 06:00:00 12.9 4 Este 8 Este 0 -- -- 97
2020-03-11 05:00:00 13.7 6 Este 11 Sudeste 0 -- -- 97
2020-03-11 04:00:00 11.7 5 Sudeste 8 Sudeste 0 -- -- 96
2020-03-11 03:00:00 11.9 5 Sudeste 7 Sudeste 0 -- -- 94
2020-03-11 02:00:00 12 5 Sudeste 7 Sudeste 0 -- -- 94
2020-03-11 01:00:00 11.9 3 Sur 10 Sur 0 -- -- 92
2020-03-11 00:00:00 12.6 5 Este 8 Sur 0 -- -- 94
2020-03-10 23:00:00 13.6 3 Sudeste 6 Sur 0 -- -- 91
2020-03-10 22:00:00 15.3 5 Sur 7 Sur 0 -- -- 87
2020-03-10 21:00:00 16.4 2 Este 5 Sudoeste 0 -- -- 86
2020-03-10 20:00:00 17.1 3 Este 7 Nordeste 0 -- -- 89
2020-03-10 19:00:00 17.3 4 Nordeste 9 Norte 0 -- -- 89
2020-03-10 18:00:00 18 6 Nordeste 14 Nordeste 0 -- -- 85
2020-03-10 17:00:00 19 6 Nordeste 15 Nordeste 0 -- -- 79
2020-03-10 16:00:00 19.2 8 Nordeste 21 Norte 0 -- -- 80
2020-03-10 15:00:00 20 9 Nordeste 19 Nordeste 0 -- -- 77
2020-03-10 14:00:00 19.5 11 Nordeste 22 Nordeste 0 -- -- 78
2020-03-10 13:00:00 19.4 8 Nordeste 17 Nordeste 0 -- -- 78
2020-03-10 12:00:00 19 9 Nordeste 18 Norte 0 -- -- 79
2020-03-10 11:00:00 19.3 8 Este 15 Este 0 -- -- 76
2020-03-10 10:00:00 18.7 4 Nordeste 11 Nordeste 0 -- -- 77
2020-03-10 09:00:00 16.6 3 Este 9 Este 0 -- -- 84
2020-03-10 08:00:00 13.7 4 Sur 9 Este 0 -- -- 83
2020-03-10 07:00:00 14.9 8 Este 12 Este 0 -- -- 86
2020-03-10 06:00:00 12.3 5 Este 12 Este 0 -- -- 66
2020-03-10 05:00:00 11.9 5 Sudeste 9 Sudeste 0 -- -- 76
2020-03-10 04:00:00 12.1 5 Este 10 Este 0 -- -- 73
2020-03-10 03:00:00 11.9 5 Este 7 Sudeste 0 -- -- 75
2020-03-10 02:00:00 12.3 4 Sur 10 Sur 0 -- -- 72
2020-03-10 01:00:00 14.6 4 Este 14 Este 0 -- -- 88
2020-03-10 00:00:00 13.1 3 Sudeste 11 Sudeste 0 -- -- 82
2020-03-09 23:00:00 13.9 4 Sudeste 10 Sur 0 -- -- 89
2020-03-09 22:00:00 14.9 4 Sur 8 Sur 0 -- -- 87
2020-03-09 21:00:00 16.6 5 Sur 8 Sur 0 -- -- 84
2020-03-09 20:00:00 17.4 3 Sudeste 11 Nordeste 0 -- -- 88
2020-03-09 19:00:00 17.9 4 Nordeste 13 Nordeste 0 -- -- 89
2020-03-09 18:00:00 18.7 4 Nordeste 12 Este 0 -- -- 82
2020-03-09 17:00:00 20.4 6 Nordeste 18 Norte 0 -- -- 74
2020-03-09 16:00:00 20.2 7 Nordeste 21 Nordeste 0 -- -- 76
2020-03-09 15:00:00 19.7 10 Nordeste 22 Este 0 -- -- 78
2020-03-09 14:00:00 19.9 9 Nordeste 19 Nordeste -- -- -- 76
2020-03-09 13:00:00 19.3 8 Nordeste 21 Nordeste 0 -- -- 77
2020-03-09 12:00:00 19.5 10 Nordeste 20 Nordeste 0 -- -- 75
2020-03-09 11:00:00 19 9 Nordeste 17 Nordeste 0 -- -- 77
2020-03-09 10:00:00 18.4 6 Nordeste 14 Norte 0 -- -- 78
2020-03-09 09:00:00 16.7 3 Sudeste 10 Sur 0 -- -- 76
2020-03-09 08:00:00 14.9 9 Sur 13 Sur 0 -- -- 76
2020-03-09 07:00:00 12.6 9 Sur 12 Sur 0 -- -- 79
2020-03-09 06:00:00 14.3 5 Sur 12 Este 0 -- -- 82
2020-03-09 05:00:00 12.9 4 Este 8 Sudeste 0 -- -- 84
2020-03-09 04:00:00 13.3 6 Sur 10 Sur 0 -- -- 73
2020-03-09 03:00:00 15.1 3 Sur 14 Sur 0 -- -- 73
2020-03-09 02:00:00 16.5 5 Sur 14 Sur 0 -- -- 74
2020-03-09 01:00:00 16.8 5 Sur 10 Sur 0 -- -- 70
2020-03-09 00:00:00 17 4 Sur 9 Sudoeste 0 -- -- 76
2020-03-08 23:00:00 16.9 6 Sudeste 11 Sudeste 0 -- -- 75
2020-03-08 22:00:00 17.3 0 Calma 9 Sudeste 0 -- -- 83
2020-03-08 21:00:00 17.3 3 Sudeste 8 Este 0 -- -- 87
2020-03-08 20:00:00 17.6 4 Nordeste 9 Nordeste 0 -- -- 85
2020-03-08 19:00:00 17.8 6 Nordeste 14 Norte 0 -- -- 85
2020-03-08 18:00:00 18.4 5 Nordeste 20 Nordeste 0 -- -- 83
2020-03-08 17:00:00 19.2 7 Nordeste 19 Nordeste 0 -- -- 79
2020-03-08 16:00:00 19.6 9 Nordeste 21 Nordeste 0 -- -- 77
2020-03-08 15:00:00 19.8 10 Nordeste 25 Nordeste 0 -- -- 75
2020-03-08 14:00:00 20 8 Nordeste 20 Nordeste 0 -- -- 71
2020-03-08 13:00:00 19.9 9 Nordeste 20 Norte 0 -- -- 72
2020-03-08 12:00:00 19.5 10 Nordeste 20 Nordeste 0 -- -- 70
2020-03-08 11:00:00 18.8 7 Nordeste 15 Nordeste 0 -- -- 70
2020-03-08 10:00:00 17.5 3 Norte 10 Norte 0 -- -- 74
2020-03-08 09:00:00 16.6 3 Sur 11 Norte 0 -- -- 74
2020-03-08 08:00:00 16.2 4 Oeste 8 Oeste 0 -- -- 77
2020-03-08 07:00:00 16.2 2 Este 13 Nordeste 0 -- -- 79
2020-03-08 06:00:00 16.2 2 Noroeste 9 Este 0 -- -- 79
2020-03-08 05:00:00 16.1 3 Este 14 Nordeste 0 -- -- 78
2020-03-08 04:00:00 16.1 4 Norte 18 Nordeste 0 -- -- 77
2020-03-08 03:00:00 16.1 3 Sur 13 Nordeste 0 -- -- 76
2020-03-08 02:00:00 16.2 3 Este 13 Este 0 -- -- 76
2020-03-08 01:00:00 16.2 5 Nordeste 18 Nordeste 0 -- -- 75
2020-03-08 00:00:00 16.2 3 Nordeste 16 Nordeste 0 -- -- 76
2020-03-07 23:00:00 16.3 4 Nordeste 18 Nordeste 0 -- -- 75
2020-03-07 22:00:00 16.4 8 Nordeste 22 Nordeste 0 -- -- 75
2020-03-07 21:00:00 16.4 8 Nordeste 19 Nordeste 0 -- -- 75
2020-03-07 20:00:00 16.3 7 Nordeste 18 Nordeste 0 -- -- 76
2020-03-07 19:00:00 16.4 9 Nordeste 21 Nordeste 0 -- -- 77
2020-03-07 18:00:00 16.6 9 Nordeste 21 Nordeste 0 -- -- 76
2020-03-07 17:00:00 16.9 12 Nordeste 21 Nordeste 0 -- -- 73
2020-03-07 16:00:00 17.8 9 Nordeste 20 Norte 0 -- -- 66
2020-03-07 15:00:00 18 8 Norte 21 Este 0 -- -- 68
2020-03-07 14:00:00 18.2 7 Norte 22 Norte 0 -- -- 63
2020-03-07 13:00:00 19.1 10 Norte 22 Noroeste 0 -- -- 59
2020-03-07 12:00:00 17.4 6 Nordeste 24 Norte 0 -- -- 66
2020-03-07 11:00:00 16.6 7 Norte 21 Nordeste 0 -- -- 73
2020-03-07 10:00:00 16.7 7 Nordeste 26 Norte 0 -- -- 68
2020-03-07 09:00:00 16 9 Nordeste 26 Nordeste 0 -- -- 72
2020-03-07 08:00:00 15.7 7 Norte 21 Norte 0 -- -- 74
2020-03-07 07:00:00 15.6 7 Norte 25 Nordeste 0 -- -- 75
2020-03-07 06:00:00 15.5 11 Nordeste 24 Norte 0 -- -- 72
2020-03-07 05:00:00 15.5 11 Nordeste 26 Nordeste 0 -- -- 73
2020-03-07 04:00:00 15.4 5 Nordeste 20 Norte 0 -- -- 74
2020-03-07 03:00:00 15.5 8 Nordeste 24 Nordeste 0 -- -- 73
2020-03-07 02:00:00 15.6 9 Norte 28 Norte 0 -- -- 73
2020-03-07 01:00:00 15.6 9 Norte 30 Norte 0 -- -- 71
2020-03-07 00:00:00 15.5 9 Nordeste 30 Nordeste 0 -- -- 70
2020-03-06 23:00:00 15.7 9 Norte 26 Norte 0 -- -- 71
2020-03-06 22:00:00 15.8 8 Norte 26 Norte 0 -- -- 72
2020-03-06 21:00:00 15.9 9 Norte 32 Nordeste 0 -- -- 74
2020-03-06 20:00:00 16.1 11 Nordeste 26 Nordeste 0 -- -- 77
2020-03-06 19:00:00 16.1 11 Norte 30 Nordeste 0 -- -- 73
2020-03-06 18:00:00 16.5 12 Nordeste 34 Nordeste 0 -- -- 74
2020-03-06 17:00:00 16.7 12 Norte 31 Norte 0 -- -- 74
2020-03-06 16:00:00 16.8 9 Nordeste 33 Nordeste 0 -- -- 69
2020-03-06 15:00:00 16.9 13 Nordeste 33 Nordeste 0 -- -- 68
2020-03-06 14:00:00 16.9 11 Nordeste 33 Nordeste 0 -- -- 72
2020-03-06 13:00:00 17.1 13 Nordeste 37 Nordeste 0 -- -- 66
2020-03-06 12:00:00 16.6 10 Norte 36 Nordeste 0 -- -- 72
2020-03-06 11:00:00 16.6 13 Nordeste 38 Nordeste 0 -- -- 69
2020-03-06 10:00:00 15.9 10 Nordeste 30 Norte 0 -- -- 76
2020-03-06 09:00:00 15.9 12 Nordeste 34 Norte 0 -- -- 79
2020-03-06 08:00:00 15.6 13 Nordeste 35 Nordeste 0 -- -- 79
2020-03-06 07:00:00 15.3 11 Norte 39 Nordeste 0 -- -- 87
2020-03-06 06:00:00 15.8 10 Norte 30 Nordeste 0 -- -- 90
2020-03-06 05:00:00 15.9 14 Norte 36 Norte 0 -- -- 92
2020-03-06 04:00:00 16 11 Norte 31 Noroeste 0 -- -- 95
2020-03-06 03:00:00 17.1 8 Norte 27 Noroeste 0 -- -- 84
2020-03-06 02:00:00 17.2 10 Norte 28 Noroeste 0 -- -- 76
2020-03-06 01:00:00 17 12 Norte 27 Norte 0 -- -- 83
2020-03-06 00:00:00 17 9 Norte 28 Noroeste 0 -- -- 79
2020-03-05 23:00:00 16.9 10 Norte 24 Noroeste 0 -- -- 77
2020-03-05 22:00:00 16.8 6 Norte 26 Norte 0 -- -- 78
2020-03-05 21:00:00 16.8 9 Norte 23 Nordeste 0 -- -- 78
2020-03-05 20:00:00 16.8 8 Norte 21 Norte 0 -- -- 78
2020-03-05 19:00:00 16.9 6 Nordeste 20 Nordeste 0 -- -- 78
2020-03-05 18:00:00 17.1 8 Nordeste 21 Norte 0 -- -- 78
2020-03-05 17:00:00 17.6 8 Nordeste 20 Nordeste 0 -- -- 80
2020-03-05 16:00:00 17.8 8 Nordeste 22 Nordeste 0 -- -- 79
2020-03-05 15:00:00 18.5 6 Nordeste 21 Nordeste 0 -- -- 75
2020-03-05 14:00:00 18.2 6 Norte 20 Este 0 -- -- 75
2020-03-05 13:00:00 17.9 9 Nordeste 22 Nordeste 0 -- -- 79
2020-03-05 12:00:00 17.7 10 Nordeste 21 Nordeste 0 -- -- 78
2020-03-05 11:00:00 18.1 9 Nordeste 23 Norte 0 -- -- 79
2020-03-05 10:00:00 17.9 4 Norte 20 Nordeste 0 -- -- 78
2020-03-05 09:00:00 16.7 3 Nordeste 15 Nordeste 0 -- -- 83
2020-03-05 08:00:00 16.4 5 Norte 15 Nordeste 0 -- -- 85
2020-03-05 07:00:00 16.5 2 Norte 12 Nordeste 0 -- -- 85
2020-03-05 06:00:00 16.5 4 Sudoeste 10 Oeste 0 -- -- 83
2020-03-05 05:00:00 16.5 2 Oeste 12 Nordeste 0 -- -- 85
2020-03-05 04:00:00 16.5 3 Norte 9 Nordeste 0 -- -- 86
2020-03-05 03:00:00 16.4 3 Sudeste 10 Sudeste 0 -- -- 84
2020-03-05 02:00:00 15.6 6 Sur 9 Sur 0 -- -- 90
2020-03-05 01:00:00 15.2 4 Este 10 Sur 0 -- -- 91
2020-03-05 00:00:00 14.9 4 Este 8 Sudeste 0 -- -- 88
2020-03-04 23:00:00 15.8 3 Este 9 Sudeste 0 -- -- 86
2020-03-04 22:00:00 16.9 4 Este 11 Sudeste 0 -- -- 86
2020-03-04 21:00:00 17.2 3 Este 10 Este 0 -- -- 87
2020-03-04 20:00:00 17.6 3 Nordeste 12 Nordeste 0 -- -- 89
2020-03-04 19:00:00 18.1 3 Nordeste 13 Nordeste 0 -- -- 87
2020-03-04 18:00:00 18.3 5 Nordeste 13 Nordeste 0 -- -- 84
2020-03-04 17:00:00 19.4 7 Nordeste 20 Nordeste 0 -- -- 80
2020-03-04 16:00:00 19.6 9 Nordeste 20 Nordeste 0 -- -- 77
2020-03-04 15:00:00 19.4 10 Nordeste 19 Nordeste 0 -- -- 76
2020-03-04 14:00:00 19.5 8 Nordeste 21 Nordeste 0 -- -- 75
2020-03-04 13:00:00 19.6 7 Nordeste 26 Nordeste 0 -- -- 74
2020-03-04 12:00:00 19.5 9 Nordeste 21 Nordeste 0 -- -- 74
2020-03-04 11:00:00 19 9 Nordeste 18 Norte 0 -- -- 74
2020-03-04 10:00:00 17.9 2 Sudoeste 9 Sudoeste 0 -- -- 77
2020-03-04 09:00:00 16.6 5 Sur 10 Sur 0 -- -- 80
2020-03-04 08:00:00 15.9 6 Sur 11 Sudoeste 0 -- -- 82
2020-03-04 07:00:00 16 5 Sur 14 Sur 0 -- -- 83
2020-03-04 06:00:00 16.1 5 Sur 11 Sur 0 -- -- 83
2020-03-04 05:00:00 16.2 4 Sur 10 Sudoeste 0 -- -- 82
2020-03-04 04:00:00 16.2 8 Sur 14 Sur 0 -- -- 83
2020-03-04 03:00:00 16.1 7 Sur 14 Sur 0 -- -- 81
2020-03-04 02:00:00 16.2 5 Sur 13 Sudoeste 0 -- -- 79
2020-03-04 01:00:00 16.7 5 Sudoeste 13 Sudoeste 0 -- -- 81
2020-03-04 00:00:00 16.8 4 Sur 9 Sur 0 -- -- 77
2020-03-03 23:00:00 17.2 4 Sudoeste 8 Sudoeste 0 -- -- 80
2020-03-03 22:00:00 17.1 3 Sur 13 Sudeste 0 -- -- 78
2020-03-03 21:00:00 17.2 2 Sudeste 9 Sudeste 0 -- -- 82
2020-03-03 20:00:00 17.2 5 Sudeste 13 Este 0 -- -- 82
2020-03-03 19:00:00 17.2 4 Este 12 Este 0 -- -- 82
2020-03-03 18:00:00 17.6 5 Norte 15 Nordeste 0 -- -- 82
2020-03-03 17:00:00 18.2 4 Nordeste 18 Nordeste 0 -- -- 79
2020-03-03 16:00:00 18.7 9 Nordeste 19 Nordeste 0 -- -- 75
2020-03-03 15:00:00 19.3 10 Nordeste 22 Norte 0 -- -- 72
2020-03-03 14:00:00 19.9 10 Norte 23 Nordeste 0 -- -- 70
2020-03-03 13:00:00 18.8 8 Nordeste 17 Norte 0 -- -- 72
2020-03-03 12:00:00 18.9 9 Nordeste 17 Norte 0 -- -- 74
2020-03-03 11:00:00 18 6 Norte 15 Norte 0 -- -- 75
2020-03-03 10:00:00 17.8 3 Este 8 Noroeste 0 -- -- 78
2020-03-03 09:00:00 16.9 3 Sudeste 12 Este 0 -- -- 79
2020-03-03 08:00:00 16.3 5 Sur 11 Sur 0 -- -- 79
2020-03-03 07:00:00 16.1 5 Sur 10 Sur 0 -- -- 77
2020-03-03 06:00:00 15.7 4 Sur 12 Sur 0 -- -- 77
2020-03-03 05:00:00 15.8 7 Sur 13 Sur 0 -- -- 75
2020-03-03 04:00:00 15.9 6 Sur 13 Sur 0 -- -- 75
2020-03-03 03:00:00 15.2 6 Sur 12 Sur 0 -- -- 78
2020-03-03 02:00:00 14.6 5 Sur 12 Sur 0 -- -- 80
2020-03-03 01:00:00 16.5 3 Nordeste 13 Nordeste 0 -- -- 84
2020-03-03 00:00:00 15.4 7 Sur 10 Sudeste 0 -- -- 80
2020-03-02 23:00:00 15.9 3 Oeste 11 Nordeste 0 -- -- 85
2020-03-02 22:00:00 16.8 4 Nordeste 14 Norte 0 -- -- 87
2020-03-02 21:00:00 17 7 Nordeste 19 Nordeste 0 -- -- 87
2020-03-02 20:00:00 17.3 4 Norte 15 Este 0 -- -- 84
2020-03-02 19:00:00 17.4 5 Nordeste 18 Nordeste 0 -- -- 82
2020-03-02 18:00:00 17.5 12 Norte 22 Norte 0 -- -- 83
2020-03-02 17:00:00 18 10 Nordeste 21 Nordeste 0 -- -- 83
2020-03-02 16:00:00 18.5 11 Nordeste 21 Norte 0 -- -- 80
2020-03-02 15:00:00 19.1 9 Nordeste 26 Nordeste 0 -- -- 79
2020-03-02 14:00:00 20.3 8 Nordeste 22 Nordeste 0 -- -- 70
2020-03-02 13:00:00 20.3 7 Nordeste 18 Este 0 -- -- 65
2020-03-02 12:00:00 19.1 7 Nordeste 17 Nordeste 0 -- -- 67
2020-03-02 11:00:00 18.6 5 Norte 15 Nordeste 0 -- -- 68
2020-03-02 10:00:00 18 5 Nordeste 11 Nordeste 0 -- -- 69
2020-03-02 09:00:00 17.2 3 Norte 10 Norte 0 -- -- 70
2020-03-02 08:00:00 16.7 2 Norte 9 Nordeste 0 -- -- 73
2020-03-02 07:00:00 16.6 3 Este 9 Nordeste 0 -- -- 71
2020-03-02 06:00:00 16.6 4 Este 14 Nordeste 0 -- -- 73
2020-03-02 05:00:00 16.6 3 Noroeste 22 Norte 0 -- -- 74
2020-03-02 04:00:00 16.5 4 Norte 19 Norte 0 -- -- 75
2020-03-02 03:00:00 16.5 7 Norte 20 Nordeste 0 -- -- 80
2020-03-02 02:00:00 16.4 4 Norte 12 Nordeste 0 -- -- 77
2020-03-02 01:00:00 16.5 4 Nordeste 17 Nordeste 0 -- -- 77
2020-03-02 00:00:00 16.5 10 Nordeste 20 Nordeste 0 -- -- 80
2020-03-01 23:00:00 16.5 4 Noroeste 8 Noroeste 0 -- -- 78
2020-03-01 22:00:00 16.2 4 Sudeste 6 Nordeste 0 -- -- 77
2020-03-01 21:00:00 16.4 4 Nordeste 8 Norte 0 -- -- 80
2020-03-01 20:00:00 16.5 2 Este 8 Norte 0 -- -- 80
2020-03-01 19:00:00 17 3 Nordeste 14 Nordeste 0 -- -- 79
2020-03-01 18:00:00 17.6 5 Nordeste 25 Nordeste 0 -- -- 79
2020-03-01 17:00:00 19 9 Nordeste 23 Noroeste 0 -- -- 73
2020-03-01 16:00:00 19.7 8 Nordeste 22 Nordeste 0 -- -- 72
2020-03-01 15:00:00 19.1 9 Nordeste 22 Nordeste 0 -- -- 75
2020-03-01 14:00:00 19 8 Nordeste 18 Nordeste 0 -- -- 75
2020-03-01 13:00:00 19.3 6 Nordeste 27 Sudoeste 0 -- -- 75
2020-03-01 12:00:00 19.7 4 Norte 13 Norte 0 -- -- 70
2020-03-01 11:00:00 18.6 4 Norte 13 Este 0 -- -- 74
2020-03-01 10:00:00 17.4 4 Sudoeste 7 Sudeste 0 -- -- 78
2020-03-01 09:00:00 14.4 3 Sur 12 Sur 0 -- -- 89
2020-03-01 08:00:00 12.5 4 Sudeste 12 Sur 0 -- -- 93
2020-03-01 07:00:00 11.9 7 Sur 12 Sur 0 -- -- 92
2020-03-01 06:00:00 12.4 8 Sur 11 Sur 0 -- -- 91
2020-03-01 05:00:00 12.9 3 Sudeste 12 Sur 0 -- -- 89
2020-03-01 04:00:00 14.1 6 Sur 11 Sur 0 -- -- 90
2020-03-01 03:00:00 13.4 4 Sur 9 Sudeste 0 -- -- 94
2020-03-01 02:00:00 13.2 5 Sur 9 Sudeste 0 -- -- 92
2020-03-01 01:00:00 12.9 6 Sur 9 Sur 0 -- -- 92
2020-03-01 00:00:00 13.1 5 Sudeste 8 Sur 0 -- -- 90
2020-02-29 23:00:00 13.7 4 Sur 8 Sur 0 -- -- 88
2020-02-29 22:00:00 15.4 0 Calma 9 Sur 0 -- -- 83
2020-02-29 21:00:00 15.7 4 Sudeste 8 Sudeste 0 -- -- 84
2020-02-29 20:00:00 16.7 3 Nordeste 9 Nordeste 0 -- -- 84
2020-02-29 19:00:00 17 5 Nordeste 13 Nordeste 0 -- -- 82
2020-02-29 18:00:00 17.4 5 Norte 18 Norte 0 -- -- 80
2020-02-29 17:00:00 18.7 6 Nordeste 18 Este 0 -- -- 74
2020-02-29 16:00:00 18.7 8 Nordeste 18 Nordeste 0 -- -- 74
2020-02-29 15:00:00 18.9 11 Nordeste 21 Nordeste 0 -- -- 74
2020-02-29 14:00:00 19.2 6 Nordeste 16 Norte 0 -- -- 71
2020-02-29 13:00:00 19.1 9 Nordeste 20 Nordeste 0 -- -- 71
2020-02-29 12:00:00 19.2 7 Norte 22 Sudeste 0 -- -- 71
2020-02-29 11:00:00 18.3 4 Noroeste 14 Nordeste 0 -- -- 73
2020-02-29 10:00:00 17.5 3 Sudoeste 9 Sudoeste 0 -- -- 75
2020-02-29 09:00:00 15.6 3 Sur 17 Este 0 -- -- 82
2020-02-29 08:00:00 12.3 6 Sur 12 Sur 0 -- -- 83
2020-02-29 07:00:00 12.1 3 Sudeste 8 Este 0 -- -- 88
2020-02-29 06:00:00 11.9 6 Sudeste 10 Este 0 -- -- 84
2020-02-29 05:00:00 11.9 5 Sudeste 10 Sur 0 -- -- 88
2020-02-29 04:00:00 11.9 5 Sur 12 Sudeste 0 -- -- 86
2020-02-29 03:00:00 12.9 4 Sudeste 9 Sur 0 -- -- 87
2020-02-29 02:00:00 14 5 Sur 11 Sur 0 -- -- 81
2020-02-29 01:00:00 15.6 5 Sur 9 Sur 0 -- -- 74
2020-02-29 00:00:00 16.1 2 Este 4 Sur 0 -- -- 78